createdAt,value
2022-10-12T00:03:19.661Z,5.50
2022-10-12T00:08:21.931Z,5.60
2022-10-12T00:13:24.513Z,5.60
2022-10-12T00:18:26.816Z,5.60
2022-10-12T00:23:30.637Z,5.40
2022-10-12T00:28:33.829Z,5.20
2022-10-12T00:33:38.588Z,5.10
2022-10-12T00:38:40.913Z,4.90
2022-10-12T00:43:44.284Z,5.20
2022-10-12T00:48:55.052Z,5.10
2022-10-12T00:54:04.021Z,4.90
2022-10-12T00:59:16.686Z,5.10
2022-10-12T01:04:19.442Z,5.20
2022-10-12T01:09:21.924Z,4.90
2022-10-12T01:14:25.114Z,4.80
2022-10-12T01:20:05.050Z,4.70
2022-10-12T01:26:00.851Z,4.70
2022-10-12T01:31:32.575Z,4.70
2022-10-12T01:36:42.789Z,4.90
2022-10-12T01:41:50.322Z,4.70
2022-10-12T01:46:56.107Z,4.60
2022-10-12T01:52:18.805Z,4.70
2022-10-12T01:57:27.944Z,4.90
2022-10-12T02:03:07.386Z,4.90
2022-10-12T02:08:23.083Z,4.40
2022-10-12T02:13:28.367Z,4.30
2022-10-12T02:18:33.086Z,4.20
2022-10-12T02:23:38.386Z,4.10
2022-10-12T02:28:44.262Z,4.10
2022-10-12T02:34:04.495Z,4.10
2022-10-12T02:39:21.606Z,4.40
2022-10-12T02:44:29.530Z,4.10
2022-10-12T02:49:33.888Z,4.10
2022-10-12T02:54:36.697Z,4.00
2022-10-12T02:59:38.982Z,4.00
2022-10-12T03:04:41.318Z,3.90
2022-10-12T03:09:43.573Z,4.00
2022-10-12T03:14:45.846Z,4.30
2022-10-12T03:19:48.174Z,4.10
2022-10-12T03:24:50.444Z,4.00
2022-10-12T03:29:52.723Z,4.00
2022-10-12T03:34:54.969Z,3.80
2022-10-12T03:39:57.315Z,3.70
2022-10-12T03:44:59.570Z,3.80
2022-10-12T03:50:01.828Z,3.70
2022-10-12T03:55:04.437Z,3.90
2022-10-12T04:00:07.936Z,3.80
2022-10-12T04:05:13.707Z,4.00
2022-10-12T04:10:16.033Z,3.70
2022-10-12T04:15:18.551Z,3.90
2022-10-12T04:20:20.931Z,3.60
2022-10-12T04:25:27.721Z,3.70
2022-10-12T04:30:33.746Z,3.70
2022-10-12T04:35:36.177Z,3.60
2022-10-12T04:40:38.634Z,3.50
2022-10-12T04:45:40.905Z,3.30
2022-10-12T04:50:43.412Z,3.30
2022-10-12T04:55:45.702Z,3.60
2022-10-12T05:00:49.119Z,3.50
2022-10-12T05:05:51.777Z,3.40
2022-10-12T05:10:55.929Z,3.40
2022-10-12T05:15:58.974Z,3.30
2022-10-12T05:21:01.358Z,3.30
2022-10-12T05:26:03.753Z,3.20
2022-10-12T05:31:06.103Z,3.20
2022-10-12T05:36:08.985Z,3.20
2022-10-12T05:41:11.295Z,3.20
2022-10-12T05:46:14.507Z,3.20
2022-10-12T05:51:17.138Z,3.10
2022-10-12T05:56:19.529Z,3.00
2022-10-12T06:01:21.831Z,3.70
2022-10-12T06:06:24.301Z,3.40
2022-10-12T06:11:26.779Z,3.50
2022-10-12T06:16:29.254Z,3.90
2022-10-12T06:21:33.946Z,4.40
2022-10-12T06:26:36.928Z,4.80
2022-10-12T06:31:42.396Z,4.70
2022-10-12T06:36:44.767Z,4.90
2022-10-12T06:41:47.278Z,4.90
2022-10-12T06:46:50.184Z,5.10
2022-10-12T06:51:52.532Z,5.40
2022-10-12T06:56:58.623Z,5.60
2022-10-12T07:02:01.272Z,5.80
2022-10-12T07:07:03.985Z,6.00
2022-10-12T07:12:06.724Z,6.40
2022-10-12T07:17:09.453Z,6.50
2022-10-12T07:22:11.780Z,6.70
2022-10-12T07:27:14.285Z,6.80
2022-10-12T07:32:16.957Z,7.10
2022-10-12T07:37:19.243Z,7.10
2022-10-12T07:42:21.608Z,7.30
2022-10-12T07:47:23.947Z,7.60
2022-10-12T07:52:28.214Z,7.70
2022-10-12T07:57:30.648Z,8.00
2022-10-12T08:02:32.988Z,8.10
2022-10-12T08:07:36.533Z,8.20
2022-10-12T08:12:39.027Z,8.50
2022-10-12T08:17:41.592Z,8.90
2022-10-12T08:22:44.270Z,9.10
2022-10-12T08:27:49.192Z,9.20
2022-10-12T08:32:56.474Z,9.50
2022-10-12T08:37:58.847Z,9.60
2022-10-12T08:43:37.853Z,9.90
2022-10-12T08:49:02.980Z,10.10
2022-10-12T08:54:13.501Z,10.50
2022-10-12T08:59:18.943Z,10.90
2022-10-12T09:04:41.522Z,11.20
2022-10-12T09:09:59.682Z,11.10
2022-10-12T09:15:09.106Z,11.10
2022-10-12T09:20:21.476Z,11.60
2022-10-12T09:25:27.215Z,11.90
2022-10-12T09:30:30.398Z,11.80
2022-10-12T09:35:34.011Z,12.20
2022-10-12T09:40:36.460Z,12.40
2022-10-12T09:45:39.058Z,12.70
2022-10-12T09:51:03.414Z,12.80
2022-10-12T09:56:16.007Z,13.00
2022-10-12T10:01:25.636Z,13.20
2022-10-12T10:06:28.228Z,13.50
2022-10-12T10:11:31.685Z,13.70
2022-10-12T10:16:49.132Z,14.00
2022-10-12T10:21:52.707Z,14.10
2022-10-12T10:26:58.173Z,14.60
2022-10-12T10:32:26.372Z,14.70
2022-10-12T10:37:30.301Z,14.80
2022-10-12T10:42:34.506Z,15.10
2022-10-12T10:47:46.609Z,15.50
2022-10-12T10:52:58.564Z,15.40
2022-10-12T10:58:06.720Z,15.50
2022-10-12T11:03:26.534Z,15.80
2022-10-12T11:08:34.774Z,15.80
2022-10-12T11:13:43.896Z,16.20
2022-10-12T11:18:55.274Z,16.80
2022-10-12T11:24:14.071Z,16.80
2022-10-12T11:29:18.084Z,16.90
2022-10-12T11:34:23.803Z,17.20
2022-10-12T11:39:34.612Z,17.90
2022-10-12T11:44:43.340Z,18.20
2022-10-12T11:49:59.840Z,18.60
2022-10-12T11:55:05.225Z,18.90
2022-10-12T12:00:20.004Z,18.90
2022-10-12T12:05:22.410Z,19.00
2022-10-12T12:10:41.154Z,19.10
2022-10-12T12:15:52.607Z,18.40
2022-10-12T12:21:06.333Z,18.00
2022-10-12T12:26:16.463Z,17.50
2022-10-12T12:31:28.285Z,17.10
2022-10-12T12:36:40.888Z,17.10
2022-10-12T12:42:00.522Z,17.20
2022-10-12T12:47:08.597Z,16.90
2022-10-12T12:52:28.830Z,16.90
2022-10-12T12:57:38.927Z,16.70
2022-10-12T13:02:48.066Z,16.60
2022-10-12T13:08:19.350Z,16.60
2022-10-12T13:14:20.689Z,16.50
2022-10-12T13:19:27.835Z,16.70
2022-10-12T13:24:38.741Z,16.50
2022-10-12T13:29:54.481Z,16.50
2022-10-12T13:35:05.040Z,16.50
2022-10-12T13:40:31.869Z,16.30
2022-10-12T13:45:34.296Z,16.10
2022-10-12T13:50:37.116Z,16.10
2022-10-12T13:55:40.651Z,16.00
2022-10-12T14:00:50.331Z,17.40
2022-10-12T14:05:56.314Z,19.50
2022-10-12T14:11:00.740Z,20.80
2022-10-12T14:16:06.203Z,21.60
2022-10-12T14:21:25.550Z,21.30
2022-10-12T14:26:41.742Z,21.20
2022-10-12T14:31:53.109Z,20.10
2022-10-12T14:37:06.159Z,21.10
2022-10-12T14:42:34.337Z,20.80
2022-10-12T14:47:40.844Z,19.20
2022-10-12T14:52:46.168Z,18.30
2022-10-12T14:57:49.267Z,17.60
2022-10-12T15:02:52.895Z,17.00
2022-10-12T15:07:55.673Z,16.90
2022-10-12T15:12:58.000Z,16.90
2022-10-12T15:18:00.848Z,17.70
2022-10-12T15:23:04.040Z,18.90
2022-10-12T15:28:06.570Z,19.20
2022-10-12T15:33:11.733Z,18.50
2022-10-12T15:38:14.798Z,17.00
2022-10-12T15:43:17.260Z,16.10
2022-10-12T15:48:19.784Z,15.20
2022-10-12T15:53:24.851Z,14.60
2022-10-12T15:58:27.265Z,14.10
2022-10-12T16:03:31.587Z,13.90
2022-10-12T16:08:34.706Z,13.30
2022-10-12T16:13:44.268Z,13.20
2022-10-12T16:18:49.520Z,12.90
2022-10-12T16:23:51.965Z,12.50
2022-10-12T16:28:54.397Z,12.50
2022-10-12T16:33:57.600Z,12.10
2022-10-12T16:39:00.037Z,11.90
2022-10-12T16:44:03.444Z,11.60
2022-10-12T16:49:05.817Z,11.30
2022-10-12T16:54:08.208Z,11.50
2022-10-12T16:59:10.699Z,11.00
2022-10-12T17:04:13.381Z,10.90
2022-10-12T17:09:16.435Z,10.50
2022-10-12T17:14:18.898Z,10.60
2022-10-12T17:19:28.690Z,10.60
2022-10-12T17:24:33.629Z,10.50
2022-10-12T17:29:36.908Z,10.50
2022-10-12T17:34:43.854Z,10.10
2022-10-12T17:39:50.407Z,9.70
2022-10-12T17:44:52.919Z,9.70
2022-10-12T17:49:55.330Z,9.60
2022-10-12T17:54:57.814Z,9.40
2022-10-12T18:00:00.188Z,9.30
2022-10-12T18:05:02.548Z,9.30
2022-10-12T18:10:06.017Z,9.10
2022-10-12T18:15:08.660Z,9.20
2022-10-12T18:20:11.380Z,9.20
2022-10-12T18:25:15.549Z,8.90
2022-10-12T18:30:18.268Z,8.70
2022-10-12T18:35:20.639Z,8.60
2022-10-12T18:40:23.074Z,8.60
2022-10-12T18:45:25.640Z,8.60
2022-10-12T18:50:28.096Z,8.50
2022-10-12T18:55:30.966Z,8.50
2022-10-12T19:00:33.606Z,8.40
2022-10-12T19:05:36.047Z,8.40
2022-10-12T19:10:41.211Z,8.30
2022-10-12T19:15:43.520Z,8.00
2022-10-12T19:20:45.863Z,8.10
2022-10-12T19:25:48.193Z,7.90
2022-10-12T19:30:50.557Z,7.80
2022-10-12T19:35:53.116Z,7.80
2022-10-12T19:40:55.493Z,7.70
2022-10-12T19:46:02.906Z,7.70
2022-10-12T19:51:08.066Z,7.60
2022-10-12T19:56:14.074Z,7.60
2022-10-12T20:01:19.091Z,7.80
2022-10-12T20:06:25.099Z,7.50
2022-10-12T20:11:27.899Z,7.50
2022-10-12T20:16:34.805Z,7.30
2022-10-12T20:21:37.688Z,7.40
2022-10-12T20:26:40.982Z,7.10
2022-10-12T20:31:43.413Z,7.10
2022-10-12T20:36:45.758Z,7.10
2022-10-12T20:41:48.245Z,7.10
2022-10-12T20:46:50.722Z,7.10
2022-10-12T20:51:53.107Z,7.00
2022-10-12T20:56:55.704Z,6.90
2022-10-12T21:01:58.124Z,6.90
2022-10-12T21:07:00.505Z,6.90
2022-10-12T21:12:03.120Z,6.80
2022-10-12T21:17:05.516Z,6.70
2022-10-12T21:22:08.127Z,6.90
2022-10-12T21:27:10.518Z,6.70
2022-10-12T21:32:12.861Z,6.50
2022-10-12T21:37:15.238Z,6.40
2022-10-12T21:42:18.185Z,6.40
2022-10-12T21:47:20.762Z,6.30
2022-10-12T21:52:23.185Z,6.20
2022-10-12T21:57:25.546Z,6.20
2022-10-12T22:02:27.961Z,6.20
2022-10-12T22:07:30.316Z,6.50
2022-10-12T22:12:33.205Z,6.30
2022-10-12T22:17:36.009Z,6.10
2022-10-12T22:22:38.402Z,6.00
2022-10-12T22:27:40.734Z,5.90
2022-10-12T22:32:43.124Z,5.80
2022-10-12T22:37:45.489Z,5.80
2022-10-12T22:42:47.868Z,5.80
2022-10-12T22:47:50.230Z,5.80
2022-10-12T22:52:52.550Z,5.70
2022-10-12T22:57:55.619Z,5.70
2022-10-12T23:02:58.074Z,5.60
2022-10-12T23:08:00.450Z,5.60
2022-10-12T23:13:03.279Z,5.60
2022-10-12T23:18:07.627Z,5.70
2022-10-12T23:23:13.639Z,5.70
2022-10-12T23:28:16.923Z,5.60
2022-10-12T23:33:19.369Z,5.60
2022-10-12T23:38:21.742Z,5.50
2022-10-12T23:43:24.798Z,5.40
2022-10-12T23:48:28.759Z,5.40
2022-10-12T23:53:31.139Z,5.50
2022-10-12T23:58:34.071Z,5.40
